Time;durP1;ratioP1;P1;durP2;ratioP2;P2;SDS_P1;SDS_P2;PMS_P1;PMS_P2;Temp;Humidity;BMP_temperature;BMP_pressure;BME280_temperature;BME280_humidity;BME280_pressure;Samples;Min_cycle;Max_cycle;Signal;HPM_P1;HPM_P2
2022/11/23 00:02:00;;;;;;;;;4.00;4.00;;;;;-146.44;100.00;58906.56;5014954;28;45984;-59
2022/11/23 00:04:25;;;;;;;;;5.33;5.33;;;;;-146.44;100.00;58906.56;5014890;28;46667;-59
2022/11/23 00:06:50;;;;;;;;;11.00;6.00;;;;;-146.44;100.00;58906.56;5014798;28;45484;-59
2022/11/23 00:09:16;;;;;;;;;5.00;5.00;;;;;-146.44;100.00;58906.56;5014575;28;47915;-59
2022/11/23 00:11:41;;;;;;;;;6.00;5.00;;;;;-146.44;100.00;58906.56;5014913;28;45658;-58
2022/11/23 00:14:07;;;;;;;;;10.00;8.00;;;;;-146.44;100.00;58906.56;5014563;28;46031;-58
2022/11/23 00:16:32;;;;;;;;;6.00;6.00;;;;;-146.44;100.00;58906.56;5014815;28;45499;-59
2022/11/23 00:18:59;;;;;;;;;3.67;3.67;;;;;-146.44;100.00;58906.56;5014619;28;45535;-58
2022/11/23 00:21:26;;;;;;;;;4.33;3.33;;;;;-146.44;100.00;58906.56;5014763;28;45375;-58
2022/11/23 00:23:52;;;;;;;;;8.67;6.33;;;;;-146.44;100.00;58906.56;5014198;28;45545;-58
2022/11/23 00:26:18;;;;;;;;;4.00;4.00;;;;;-146.44;100.00;58906.56;5014362;28;45409;-58
2022/11/23 00:28:44;;;;;;;;;5.67;5.00;;;;;-146.44;100.00;58906.56;5014572;28;45514;-58
2022/11/23 00:31:14;;;;;;;;;5.67;4.00;;;;;-146.44;100.00;58906.56;5013089;28;45598;-59
2022/11/23 00:33:40;;;;;;;;;6.00;5.67;;;;;-146.44;100.00;58906.56;5014417;28;46399;-58
2022/11/23 00:36:09;;;;;;;;;7.33;5.67;;;;;-146.44;100.00;58906.56;5014109;28;49360;-58
2022/11/23 00:38:35;;;;;;;;;5.33;5.33;;;;;-146.44;100.00;58906.56;5014900;28;45651;-59
2022/11/23 00:41:03;;;;;;;;;4.00;4.00;;;;;-146.44;100.00;58906.56;5014284;28;45510;-59
2022/11/23 00:43:28;;;;;;;;;6.33;4.00;;;;;-146.44;100.00;58906.56;5013991;28;45477;-58
2022/11/23 00:46:04;;;;;;;;;8.00;6.00;;;;;-146.44;100.00;58906.56;5013321;28;45457;-59
2022/11/23 00:48:29;;;;;;;;;4.67;4.00;;;;;-146.44;100.00;58906.56;5014305;28;45583;-58
2022/11/23 00:50:55;;;;;;;;;5.33;5.33;;;;;-146.44;100.00;58906.56;5014260;28;45494;-58
2022/11/23 00:53:20;;;;;;;;;4.33;4.33;;;;;-146.44;100.00;58906.56;5014004;28;45915;-58
2022/11/23 00:55:55;;;;;;;;;4.00;4.00;;;;;-146.44;100.00;58906.56;5014136;28;45464;-58
2022/11/23 00:58:21;;;;;;;;;5.00;5.00;;;;;-146.44;100.00;58906.56;5014214;28;45432;-58
2022/11/23 01:00:46;;;;;;;;;9.00;5.67;;;;;-146.44;100.00;58906.56;5012657;28;45496;-58
2022/11/23 01:03:12;;;;;;;;;7.00;7.00;;;;;-146.44;100.00;58906.56;5013918;28;46228;-58
2022/11/23 01:05:38;;;;;;;;;4.00;4.00;;;;;-146.44;100.00;58906.56;5013900;28;45458;-59
2022/11/23 01:08:05;;;;;;;;;5.00;5.00;;;;;-146.44;100.00;58906.56;5014213;28;45488;-58
2022/11/23 01:10:30;;;;;;;;;5.33;4.33;;;;;-146.44;100.00;58906.56;5013650;28;45765;-59
2022/11/23 01:12:56;;;;;;;;;10.00;5.00;;;;;-146.44;100.00;58906.56;5013904;28;45975;-59
2022/11/23 01:15:21;;;;;;;;;5.00;5.00;;;;;-146.44;100.00;58906.56;5014147;28;45497;-59
2022/11/23 01:17:47;;;;;;;;;7.33;4.00;;;;;-146.44;100.00;58906.56;5013889;28;45665;-58
2022/11/23 01:20:12;;;;;;;;;2.00;2.00;;;;;-146.44;100.00;58906.56;5013915;28;51050;-58
2022/11/23 01:22:37;;;;;;;;;5.67;5.67;;;;;-146.44;100.00;58906.56;5013610;28;46129;-59
2022/11/23 01:25:03;;;;;;;;;7.33;4.67;;;;;-146.44;100.00;58906.56;5013212;28;45496;-58
2022/11/23 01:27:28;;;;;;;;;4.67;3.67;;;;;-146.44;100.00;58906.56;5013807;28;45427;-58
2022/11/23 01:29:54;;;;;;;;;5.33;4.33;;;;;-146.44;100.00;58906.56;5029366;28;45610;-59
2022/11/23 01:32:19;;;;;;;;;6.00;5.33;;;;;-146.44;100.00;58906.56;5013627;28;46247;-59
2022/11/23 01:34:44;;;;;;;;;3.67;3.67;;;;;-146.44;100.00;58906.56;5013458;28;45482;-59
2022/11/23 01:37:10;;;;;;;;;6.00;4.00;;;;;-146.44;100.00;58906.56;5013999;28;45446;-59
2022/11/23 01:39:35;;;;;;;;;4.00;4.00;;;;;-146.44;100.00;58906.56;5014147;28;45641;-58
2022/11/23 01:42:05;;;;;;;;;4.33;4.33;;;;;-146.44;100.00;58906.56;5013391;28;46008;-59
2022/11/23 01:44:32;;;;;;;;;6.67;5.00;;;;;-146.44;100.00;58906.56;5013581;28;45486;-58
2022/11/23 01:47:00;;;;;;;;;4.00;3.00;;;;;-146.44;100.00;58906.56;5013423;28;45536;-59
2022/11/23 01:49:30;;;;;;;;;4.00;4.00;;;;;-146.44;100.00;58906.56;5013467;28;45509;-58
2022/11/23 01:51:58;;;;;;;;;5.33;4.33;;;;;-146.44;100.00;58906.56;5013414;28;46198;-58
2022/11/23 01:54:31;;;;;;;;;4.00;4.00;;;;;-146.44;100.00;58906.56;5013162;28;45409;-59
2022/11/23 01:57:04;;;;;;;;;4.00;4.00;;;;;-146.44;100.00;58906.56;5013523;28;45602;-59
2022/11/23 01:59:32;;;;;;;;;3.67;3.67;;;;;-146.44;100.00;58906.56;5016957;28;45508;-58
2022/11/23 02:01:59;;;;;;;;;10.67;6.00;;;;;-146.44;100.00;58906.56;5016731;28;45534;-58
2022/11/23 02:04:29;;;;;;;;;3.33;3.33;;;;;-146.44;100.00;58906.56;5016571;28;45478;-59
2022/11/23 02:06:58;;;;;;;;;4.00;4.00;;;;;-146.44;100.00;58906.56;5016885;28;45485;-58
2022/11/23 02:09:23;;;;;;;;;4.00;4.00;;;;;-146.44;100.00;58906.56;5016613;28;45497;-59
2022/11/23 02:11:50;;;;;;;;;3.67;3.67;;;;;-146.44;100.00;58906.56;5016530;28;45477;-58
2022/11/23 02:14:16;;;;;;;;;6.00;4.00;;;;;-146.44;100.00;58906.56;5016524;28;45446;-59
2022/11/23 02:16:41;;;;;;;;;4.33;4.00;;;;;-146.44;100.00;58906.56;5015361;28;45381;-59
2022/11/23 02:19:20;;;;;;;;;5.33;5.33;;;;;-146.44;100.00;58906.56;5016605;28;45487;-58
2022/11/23 02:21:46;;;;;;;;;5.00;4.00;;;;;-146.44;100.00;58906.56;5016461;28;45692;-59
2022/11/23 02:24:24;;;;;;;;;7.00;4.67;;;;;-146.44;100.00;58906.56;5016153;28;45428;-58
2022/11/23 02:26:50;;;;;;;;;6.00;6.00;;;;;-146.44;100.00;58906.56;5016724;28;45533;-58
2022/11/23 02:29:24;;;;;;;;;5.00;5.00;;;;;-146.44;100.00;58906.56;5016391;28;45514;-58
2022/11/23 02:31:49;;;;;;;;;7.33;5.00;;;;;-146.44;100.00;58906.56;5016223;28;46042;-58
2022/11/23 02:34:18;;;;;;;;;5.00;5.00;;;;;-146.44;100.00;58906.56;5016035;28;45533;-58
2022/11/23 02:36:47;;;;;;;;;6.33;4.33;;;;;-146.44;100.00;58906.56;5016358;28;45403;-58
2022/11/23 02:39:41;;;;;;;;;5.67;5.00;;;;;-146.44;100.00;58906.56;5016866;28;45577;-59
2022/11/23 02:42:06;;;;;;;;;8.00;7.00;;;;;-146.44;100.00;58906.56;5016008;28;46155;-58
2022/11/23 02:44:56;;;;;;;;;5.33;5.00;;;;;-146.44;100.00;58906.56;5016097;28;45487;-59
2022/11/23 02:47:22;;;;;;;;;5.67;5.67;;;;;-146.44;100.00;58906.56;5016295;28;45464;-58
2022/11/23 02:49:48;;;;;;;;;5.67;5.00;;;;;-146.44;100.00;58906.56;5016241;28;45669;-58
2022/11/23 02:52:15;;;;;;;;;8.67;6.67;;;;;-146.44;100.00;58906.56;5015971;28;45536;-58
2022/11/23 02:54:40;;;;;;;;;6.67;6.67;;;;;-146.44;100.00;58906.56;5015971;28;45490;-59
2022/11/23 02:57:05;;;;;;;;;6.00;4.67;;;;;-146.44;100.00;58906.56;5015889;28;45474;-59
2022/11/23 02:59:32;;;;;;;;;5.00;5.00;;;;;-146.44;100.00;58906.56;5016017;28;45506;-59
2022/11/23 03:01:58;;;;;;;;;5.00;5.00;;;;;-146.44;100.00;58906.56;5013526;28;45581;-59
2022/11/23 03:04:23;;;;;;;;;5.00;5.00;;;;;-146.44;100.00;58906.56;5015810;28;45492;-59
2022/11/23 03:06:49;;;;;;;;;4.67;4.67;;;;;-146.44;100.00;58906.56;5015618;28;46102;-59
2022/11/23 03:09:14;;;;;;;;;6.00;6.00;;;;;-146.44;100.00;58906.56;5014768;28;49479;-58
2022/11/23 03:11:39;;;;;;;;;4.00;4.00;;;;;-146.44;100.00;58906.56;5015267;28;57031;-59
2022/11/23 03:14:05;;;;;;;;;5.00;5.00;;;;;-146.44;100.00;58906.56;5015638;28;49255;-59
2022/11/23 03:16:32;;;;;;;;;8.00;8.00;;;;;-146.44;100.00;58906.56;5015687;28;45543;-58
2022/11/23 03:18:57;;;;;;;;;5.33;5.33;;;;;-146.44;100.00;58906.56;5015510;28;45537;-58
2022/11/23 03:21:22;;;;;;;;;4.67;4.67;;;;;-146.44;100.00;58906.56;5014988;28;57165;-59
2022/11/23 03:23:48;;;;;;;;;6.00;6.00;;;;;-146.44;100.00;58906.56;5015316;28;45515;-58
2022/11/23 03:26:13;;;;;;;;;5.00;5.00;;;;;-146.44;100.00;58906.56;5015561;28;46214;-58
2022/11/23 03:28:38;;;;;;;;;5.00;5.00;;;;;-146.44;100.00;58906.56;5015591;28;45517;-58
2022/11/23 03:31:04;;;;;;;;;6.00;5.33;;;;;-146.44;100.00;58906.56;5015579;28;46579;-59
2022/11/23 03:33:29;;;;;;;;;7.33;6.00;;;;;-146.44;100.00;58906.56;5015263;28;45479;-59
2022/11/23 03:35:55;;;;;;;;;5.00;5.00;;;;;-146.44;100.00;58906.56;5015117;28;45619;-59
2022/11/23 03:38:20;;;;;;;;;8.00;5.67;;;;;-146.44;100.00;58906.56;5015827;28;45459;-59
2022/11/23 03:40:46;;;;;;;;;7.33;5.33;;;;;-146.44;100.00;58906.56;5015110;28;46444;-59
2022/11/23 03:43:13;;;;;;;;;4.33;4.33;;;;;-146.44;100.00;58906.56;5015321;28;45557;-59
2022/11/23 03:45:38;;;;;;;;;9.00;9.00;;;;;-146.44;100.00;58906.56;5030648;28;45467;-58
2022/11/23 03:48:04;;;;;;;;;6.33;6.33;;;;;-146.44;100.00;58906.56;5015219;28;45581;-58
2022/11/23 03:50:29;;;;;;;;;8.33;7.33;;;;;-146.44;100.00;58906.56;5014849;28;45555;-58
2022/11/23 03:52:55;;;;;;;;;8.33;8.33;;;;;-146.44;100.00;58906.56;5014864;28;45505;-59
2022/11/23 03:55:20;;;;;;;;;11.00;8.33;;;;;-146.44;100.00;58906.56;5015019;28;45524;-58
2022/11/23 03:57:48;;;;;;;;;8.00;5.67;;;;;-146.44;100.00;58906.56;5015332;28;45399;-58
2022/11/23 04:00:14;;;;;;;;;5.67;5.67;;;;;-146.44;100.00;58906.56;5014885;28;45474;-58
2022/11/23 04:02:41;;;;;;;;;8.67;8.67;;;;;-146.44;100.00;58906.56;5014741;28;45478;-59
2022/11/23 04:05:07;;;;;;;;;4.33;4.33;;;;;-146.44;100.00;58906.56;5015059;28;45589;-58
2022/11/23 04:07:32;;;;;;;;;9.00;6.33;;;;;-146.44;100.00;58906.56;5014813;28;45671;-58
2022/11/23 04:09:58;;;;;;;;;12.00;7.67;;;;;-146.44;100.00;58906.56;5014594;28;45993;-58
2022/11/23 04:12:24;;;;;;;;;9.33;9.33;;;;;-146.44;100.00;58906.56;5014489;28;51658;-59
2022/11/23 04:14:50;;;;;;;;;7.67;7.33;;;;;-146.44;100.00;58906.56;5015016;28;45481;-59
2022/11/23 04:17:15;;;;;;;;;8.00;5.33;;;;;-146.44;100.00;58906.56;5014722;28;45592;-59
2022/11/23 04:19:40;;;;;;;;;4.67;4.67;;;;;-146.44;100.00;58906.56;5014379;28;55100;-58
2022/11/23 04:22:06;;;;;;;;;9.00;7.33;;;;;-146.44;100.00;58906.56;5013468;28;45544;-58
2022/11/23 04:24:31;;;;;;;;;6.00;6.00;;;;;-146.44;100.00;58906.56;5013213;28;46058;-58
2022/11/23 04:26:56;;;;;;;;;9.67;9.67;;;;;-146.44;100.00;58906.56;5014566;28;45595;-58
2022/11/23 04:29:21;;;;;;;;;8.67;6.33;;;;;-146.44;100.00;58906.56;5014293;28;46627;-59
2022/11/23 04:31:47;;;;;;;;;13.00;9.00;;;;;-146.44;100.00;58906.56;5014534;28;45554;-58
2022/11/23 04:34:12;;;;;;;;;7.67;6.00;;;;;-146.44;100.00;58906.56;5014682;28;45541;-58
2022/11/23 04:36:38;;;;;;;;;8.00;6.00;;;;;-146.44;100.00;58906.56;5014010;28;54364;-58
2022/11/23 04:39:03;;;;;;;;;5.33;5.33;;;;;-146.44;100.00;58906.56;5015007;28;46011;-58
2022/11/23 04:41:29;;;;;;;;;6.00;6.00;;;;;-146.44;100.00;58906.56;5014156;28;45537;-58
2022/11/23 04:43:54;;;;;;;;;8.67;8.00;;;;;-146.44;100.00;58906.56;5014567;28;45533;-58
2022/11/23 04:46:20;;;;;;;;;9.00;9.00;;;;;-146.44;100.00;58906.56;5014261;28;45513;-59
2022/11/23 04:48:45;;;;;;;;;6.33;6.33;;;;;-146.44;100.00;58906.56;5014289;28;45610;-59
2022/11/23 04:51:10;;;;;;;;;9.00;8.00;;;;;-146.44;100.00;58906.56;5014309;28;45444;-58
2022/11/23 04:53:36;;;;;;;;;6.00;5.00;;;;;-146.44;100.00;58906.56;5014202;28;45518;-58
2022/11/23 04:56:01;;;;;;;;;6.00;6.00;;;;;-146.44;100.00;58906.56;5012845;28;45611;-58
2022/11/23 04:58:27;;;;;;;;;9.00;9.00;;;;;-146.44;100.00;58906.56;5013899;28;46097;-59
2022/11/23 05:00:52;;;;;;;;;11.33;8.33;;;;;-146.44;100.00;58906.56;5014017;28;45541;-58
2022/11/23 05:03:18;;;;;;;;;9.00;9.00;;;;;-146.44;100.00;58906.56;5014280;28;45375;-58
2022/11/23 05:05:43;;;;;;;;;5.00;5.00;;;;;-146.44;100.00;58906.56;5013996;28;45566;-59
2022/11/23 05:08:09;;;;;;;;;5.00;5.00;;;;;-146.44;100.00;58906.56;5014061;28;46400;-59
2022/11/23 05:10:35;;;;;;;;;6.00;6.00;;;;;-146.44;100.00;58906.56;5014002;28;45672;-58
2022/11/23 05:13:01;;;;;;;;;6.33;5.33;;;;;-146.44;100.00;58906.56;5013783;28;45502;-58
2022/11/23 05:15:27;;;;;;;;;5.67;5.67;;;;;-146.44;100.00;58906.56;5013727;28;45542;-59
2022/11/23 05:17:52;;;;;;;;;9.33;9.33;;;;;-146.44;100.00;58906.56;5012013;28;45476;-59
2022/11/23 05:20:17;;;;;;;;;9.33;8.33;;;;;-146.44;100.00;58906.56;5013988;28;45450;-59
2022/11/23 05:22:43;;;;;;;;;6.00;6.00;;;;;-146.44;100.00;58906.56;5013734;28;45473;-59
2022/11/23 05:25:08;;;;;;;;;8.00;6.33;;;;;-146.44;100.00;58906.56;5013684;28;45466;-58
2022/11/23 05:27:34;;;;;;;;;4.00;4.00;;;;;-146.44;100.00;58906.56;5013846;28;45954;-59
2022/11/23 05:30:00;;;;;;;;;6.33;4.67;;;;;-146.44;100.00;58906.56;5013523;28;45535;-58
2022/11/23 05:32:25;;;;;;;;;4.67;4.67;;;;;-146.44;100.00;58906.56;5014675;28;45499;-58
2022/11/23 05:34:50;;;;;;;;;5.33;4.67;;;;;-146.44;100.00;58906.56;5017138;28;45793;-59
2022/11/23 05:37:16;;;;;;;;;5.33;5.33;;;;;-146.44;100.00;58906.56;5017064;28;45591;-58
2022/11/23 05:39:41;;;;;;;;;7.67;7.67;;;;;-146.44;100.00;58906.56;5017420;28;45573;-58
2022/11/23 05:42:06;;;;;;;;;5.33;5.33;;;;;-146.44;100.00;58906.56;5016065;28;45469;-59
2022/11/23 05:44:32;;;;;;;;;8.67;6.33;;;;;-146.44;100.00;58906.56;5017141;28;45481;-59
2022/11/23 05:46:57;;;;;;;;;5.67;5.00;;;;;-146.44;100.00;58906.56;5016905;28;46037;-58
2022/11/23 05:49:23;;;;;;;;;6.33;6.33;;;;;-146.44;100.00;58906.56;5017026;28;45430;-58
2022/11/23 05:51:48;;;;;;;;;12.00;8.00;;;;;-146.44;100.00;58906.56;5016971;28;45461;-59
2022/11/23 05:54:13;;;;;;;;;10.33;9.00;;;;;-146.44;100.00;58906.56;5017105;28;45482;-59
2022/11/23 05:56:39;;;;;;;;;9.67;9.00;;;;;-146.44;100.00;58906.56;5016682;28;45966;-58
2022/11/23 05:59:05;;;;;;;;;5.67;5.67;;;;;-146.44;100.00;58906.56;5016936;28;45624;-58
2022/11/23 06:01:31;;;;;;;;;8.67;6.67;;;;;-146.44;100.00;58906.56;5017082;28;45509;-58
2022/11/23 06:03:57;;;;;;;;;9.00;8.00;;;;;-146.44;100.00;58906.56;5016816;28;45469;-59
2022/11/23 06:06:22;;;;;;;;;8.00;8.00;;;;;-146.44;100.00;58906.56;5016502;28;46536;-59
2022/11/23 06:08:47;;;;;;;;;9.00;9.00;;;;;-146.44;100.00;58906.56;5016668;28;45475;-59
2022/11/23 06:11:13;;;;;;;;;8.67;5.00;;;;;-146.44;100.00;58906.56;5016759;28;45426;-58
2022/11/23 06:13:38;;;;;;;;;5.67;5.67;;;;;-146.44;100.00;58906.56;5016979;28;45560;-58
2022/11/23 06:16:04;;;;;;;;;8.67;7.00;;;;;-146.44;100.00;58906.56;5031899;28;45918;-60
2022/11/23 06:18:29;;;;;;;;;8.67;8.00;;;;;-146.44;100.00;58906.56;5016388;28;45500;-59
2022/11/23 06:20:58;;;;;;;;;9.67;8.33;;;;;-146.44;100.00;58906.56;5016534;28;45435;-58
2022/11/23 06:23:24;;;;;;;;;6.00;6.00;;;;;-146.44;100.00;58906.56;5016485;28;45583;-58
2022/11/23 06:25:49;;;;;;;;;5.33;5.33;;;;;-146.44;100.00;58906.56;5016168;28;46459;-59
2022/11/23 06:28:14;;;;;;;;;5.00;5.00;;;;;-146.44;100.00;58906.56;5016402;28;45461;-58
2022/11/23 06:30:40;;;;;;;;;5.33;4.00;;;;;-146.44;100.00;58906.56;5016448;28;45567;-58
2022/11/23 06:33:05;;;;;;;;;6.00;5.00;;;;;-146.44;100.00;58906.56;5016441;28;45584;-58
2022/11/23 06:35:31;;;;;;;;;5.67;5.67;;;;;-146.44;100.00;58906.56;5016166;28;45500;-59
2022/11/23 06:37:56;;;;;;;;;8.00;6.00;;;;;-146.44;100.00;58906.56;5016557;28;47087;-59
2022/11/23 06:40:21;;;;;;;;;4.67;3.00;;;;;-146.44;100.00;58906.56;5032315;28;45353;-59
2022/11/23 06:42:47;;;;;;;;;5.00;5.00;;;;;-146.44;100.00;58906.56;5016318;28;45513;-58
2022/11/23 06:45:13;;;;;;;;;8.67;8.67;;;;;-146.44;100.00;58906.56;5014927;28;45917;-59
2022/11/23 06:47:38;;;;;;;;;8.00;6.00;;;;;-146.44;100.00;58906.56;5016194;28;45536;-59
2022/11/23 06:50:04;;;;;;;;;7.00;5.00;;;;;-146.44;100.00;58906.56;5015979;28;46295;-60
2022/11/23 06:52:30;;;;;;;;;5.00;5.00;;;;;-146.44;100.00;58906.56;5016138;28;45521;-59
2022/11/23 06:54:55;;;;;;;;;5.00;5.00;;;;;-146.44;100.00;58906.56;5015610;28;46145;-59
2022/11/23 06:57:21;;;;;;;;;9.33;4.67;;;;;-146.44;100.00;58906.56;5015914;28;45525;-59
2022/11/23 06:59:47;;;;;;;;;5.33;4.00;;;;;-146.44;100.00;58906.56;5016016;28;45484;-59
2022/11/23 07:02:13;;;;;;;;;6.33;4.00;;;;;-146.44;100.00;58906.56;5015894;28;45493;-59
2022/11/23 07:04:38;;;;;;;;;10.00;5.00;;;;;-146.44;100.00;58906.56;5030690;28;46796;-59
2022/11/23 07:07:04;;;;;;;;;6.00;6.00;;;;;-146.44;100.00;58906.56;5015645;28;45434;-59
2022/11/23 07:09:29;;;;;;;;;6.67;5.67;;;;;-146.44;100.00;58906.56;5018757;28;45706;-60
2022/11/23 07:11:54;;;;;;;;;5.67;5.67;;;;;-146.44;100.00;58906.56;5017274;28;45594;-59
2022/11/23 07:14:20;;;;;;;;;6.00;4.67;;;;;-146.44;100.00;58906.56;5018602;28;49401;-59
2022/11/23 07:16:45;;;;;;;;;5.00;5.00;;;;;-146.44;100.00;58906.56;5021906;28;47983;-59
2022/11/23 07:19:10;;;;;;;;;4.00;4.00;;;;;-146.44;100.00;58906.56;5016595;28;45510;-59
2022/11/23 07:21:36;;;;;;;;;4.00;4.00;;;;;-146.44;100.00;58906.56;5016340;28;45702;-59
2022/11/23 07:24:01;;;;;;;;;7.67;5.00;;;;;-146.44;100.00;58906.56;5021069;28;45461;-59
2022/11/23 07:26:26;;;;;;;;;5.00;4.00;;;;;-146.44;100.00;58906.56;5015411;28;45529;-59
2022/11/23 07:28:51;;;;;;;;;4.67;4.67;;;;;-146.44;100.00;58906.56;5015200;28;48711;-59
2022/11/23 07:31:17;;;;;;;;;4.67;4.67;;;;;-146.44;100.00;58906.56;5015394;28;45487;-61
2022/11/23 07:33:46;;;;;;;;;4.33;3.67;;;;;-146.44;100.00;58906.56;5015334;28;45532;-61
2022/11/23 07:36:12;;;;;;;;;4.67;3.00;;;;;-146.44;100.00;58906.56;5014998;28;45600;-58
2022/11/23 07:38:37;;;;;;;;;4.00;4.00;;;;;-146.44;100.00;58906.56;5016008;28;45549;-58
2022/11/23 07:41:02;;;;;;;;;3.67;3.67;;;;;-146.44;100.00;58906.56;5012969;28;45684;-58
2022/11/23 07:43:28;;;;;;;;;3.00;3.00;;;;;-146.44;100.00;58906.56;5014918;28;46042;-59
2022/11/23 07:45:56;;;;;;;;;5.00;4.00;;;;;-146.44;100.00;58906.56;5013795;28;45589;-63
2022/11/23 07:48:22;;;;;;;;;2.00;2.00;;;;;-146.44;100.00;58906.56;5011349;28;45604;-63
2022/11/23 07:50:47;;;;;;;;;4.00;4.00;;;;;-146.44;100.00;58906.56;5015170;28;45650;-64
2022/11/23 07:53:13;;;;;;;;;6.33;5.67;;;;;-146.44;100.00;58906.56;5014546;28;45541;-65
2022/11/23 07:55:38;;;;;;;;;3.00;3.00;;;;;-146.44;100.00;58906.56;5029838;28;45450;-65
2022/11/23 07:58:05;;;;;;;;;5.67;5.33;;;;;-146.44;100.00;58906.56;5009958;28;45509;-51
2022/11/23 08:00:31;;;;;;;;;2.67;2.67;;;;;-146.44;100.00;58906.56;5011630;28;45585;-53
2022/11/23 08:02:57;;;;;;;;;2.33;2.33;;;;;-146.44;100.00;58906.56;5006654;28;46308;-58
2022/11/23 08:05:34;;;;;;;;;3.00;3.00;;;;;-146.44;100.00;58906.56;5015400;28;45558;-58
2022/11/23 08:08:01;;;;;;;;;7.67;6.00;;;;;-146.44;100.00;58906.56;5014912;28;45593;-58
2022/11/23 08:10:31;;;;;;;;;6.33;6.33;;;;;-146.44;100.00;58906.56;5014686;28;45655;-60
2022/11/23 08:12:57;;;;;;;;;2.33;2.33;;;;;-146.44;100.00;58906.56;5014551;28;46296;-61
2022/11/23 08:15:23;;;;;;;;;2.00;2.00;;;;;-146.44;100.00;58906.56;5014748;28;45526;-58
2022/11/23 08:17:53;;;;;;;;;4.33;4.33;;;;;-146.44;100.00;58906.56;5014508;28;45419;-56
2022/11/23 08:20:18;;;;;;;;;3.00;3.00;;;;;-146.44;100.00;58906.56;5014473;28;45520;-59
2022/11/23 08:22:44;;;;;;;;;3.00;3.00;;;;;-146.44;100.00;58906.56;5014062;28;50305;-58
2022/11/23 08:25:09;;;;;;;;;6.00;6.00;;;;;-146.44;100.00;58906.56;5014345;28;45422;-59
2022/11/23 08:27:34;;;;;;;;;2.00;2.00;;;;;-146.44;100.00;58906.56;5014392;28;45959;-59
2022/11/23 08:30:00;;;;;;;;;4.00;4.00;;;;;-146.44;100.00;58906.56;5029447;28;45468;-59
2022/11/23 08:32:28;;;;;;;;;4.00;4.00;;;;;-146.44;100.00;58906.56;5014465;28;45381;-59
2022/11/23 08:34:53;;;;;;;;;2.00;2.00;;;;;-146.44;100.00;58906.56;5014349;28;45581;-57
2022/11/23 08:37:19;;;;;;;;;4.33;2.67;;;;;-146.44;100.00;58906.56;5014376;28;45426;-59
2022/11/23 08:39:44;;;;;;;;;3.00;3.00;;;;;-146.44;100.00;58906.56;5014592;28;47686;-57
2022/11/23 08:42:09;;;;;;;;;2.00;2.00;;;;;-146.44;100.00;58906.56;5013997;28;49041;-58
2022/11/23 08:44:35;;;;;;;;;3.00;1.33;;;;;-146.44;100.00;58906.56;5014317;28;45482;-59
2022/11/23 08:47:00;;;;;;;;;3.00;3.00;;;;;-146.44;100.00;58906.56;5013824;28;46140;-59
2022/11/23 08:49:25;;;;;;;;;5.00;5.00;;;;;-146.44;100.00;58906.56;5014395;28;45581;-58
2022/11/23 08:51:51;;;;;;;;;8.67;4.67;;;;;-146.44;100.00;58906.56;5013718;28;48688;-59
2022/11/23 08:54:16;;;;;;;;;5.00;4.00;;;;;-146.44;100.00;58906.56;5014021;28;45532;-59
2022/11/23 08:56:42;;;;;;;;;5.00;2.33;;;;;-146.44;100.00;58906.56;5014094;28;45485;-58
2022/11/23 08:59:07;;;;;;;;;4.00;4.00;;;;;-146.44;100.00;58906.56;5014136;28;45537;-57
2022/11/23 09:01:33;;;;;;;;;3.00;3.00;;;;;-146.44;100.00;58906.56;5029252;28;46946;-57
2022/11/23 09:03:58;;;;;;;;;2.33;2.33;;;;;-146.44;100.00;58906.56;5013657;28;45422;-59
2022/11/23 09:06:27;;;;;;;;;3.00;1.67;;;;;-146.44;100.00;58906.56;5013654;28;45476;-59
2022/11/23 09:08:53;;;;;;;;;2.00;2.00;;;;;-146.44;100.00;58906.56;5013286;28;45424;-59
2022/11/23 09:11:19;;;;;;;;;2.33;2.33;;;;;-146.44;100.00;58906.56;5013529;28;45453;-58
2022/11/23 09:13:44;;;;;;;;;1.00;1.00;;;;;-146.44;100.00;58906.56;5013778;28;45500;-58
2022/11/23 09:16:09;;;;;;;;;3.00;3.00;;;;;-146.44;100.00;58906.56;5013776;28;45551;-59
2022/11/23 09:18:35;;;;;;;;;3.33;2.33;;;;;-146.44;100.00;58906.56;5013822;28;45473;-59
2022/11/23 09:21:03;;;;;;;;;3.00;2.00;;;;;-146.44;100.00;58906.56;5013104;28;46950;-58
2022/11/23 09:23:28;;;;;;;;;3.00;3.00;;;;;-146.44;100.00;58906.56;5013710;28;45509;-59
2022/11/23 09:25:57;;;;;;;;;2.00;2.00;;;;;-146.44;100.00;58906.56;5013772;28;45550;-58
2022/11/23 09:28:23;;;;;;;;;3.00;2.00;;;;;-146.44;100.00;58906.56;5013966;28;45600;-57
2022/11/23 09:30:49;;;;;;;;;3.67;3.67;;;;;-146.44;100.00;58906.56;5013507;28;45934;-58
2022/11/23 09:33:15;;;;;;;;;5.67;5.67;;;;;-146.44;100.00;58906.56;5013231;28;47750;-57
2022/11/23 09:35:40;;;;;;;;;5.00;5.00;;;;;-146.44;100.00;58906.56;5013657;28;45492;-57
2022/11/23 09:38:06;;;;;;;;;2.67;2.67;;;;;-146.44;100.00;58906.56;5013545;28;45609;-59
2022/11/23 09:40:39;;;;;;;;;2.00;2.00;;;;;-146.44;100.00;58906.56;5013809;28;46816;-58
2022/11/23 09:43:13;;;;;;;;;3.00;3.00;;;;;-146.44;100.00;58906.56;5013343;28;45493;-59
2022/11/23 09:45:55;;;;;;;;;1.00;1.00;;;;;-146.44;100.00;58906.56;5012237;28;45405;-59
2022/11/23 09:48:55;;;;;;;;;3.33;3.33;;;;;-146.44;100.00;58906.56;5013266;28;45478;-58
2022/11/23 09:51:24;;;;;;;;;2.00;2.00;;;;;-146.44;100.00;58906.56;4993291;28;46223;-56
2022/11/23 09:54:00;;;;;;;;;2.33;2.33;;;;;-146.44;100.00;58906.56;5013146;28;45466;-57
2022/11/23 09:56:29;;;;;;;;;2.00;2.00;;;;;-146.44;100.00;58906.56;5013658;28;45521;-58
2022/11/23 09:58:57;;;;;;;;;2.33;2.33;;;;;-146.44;100.00;58906.56;5013064;28;45707;-57
2022/11/23 10:01:23;;;;;;;;;2.00;2.00;;;;;-146.44;100.00;58906.56;5012904;28;46105;-59
2022/11/23 10:03:49;;;;;;;;;2.00;2.00;;;;;-146.44;100.00;58906.56;5013058;28;45669;-58
2022/11/23 10:06:30;;;;;;;;;3.00;3.00;;;;;-146.44;100.00;58906.56;5013481;28;45486;-57
2022/11/23 10:09:23;;;;;;;;;3.00;2.00;;;;;-146.44;100.00;58906.56;5012910;28;45535;-59
2022/11/23 10:11:54;;;;;;;;;3.00;2.67;;;;;-146.44;100.00;58906.56;5013105;28;45516;-58
2022/11/23 10:14:44;;;;;;;;;2.67;2.67;;;;;-146.44;100.00;58906.56;5012992;28;45520;-57
2022/11/23 10:17:49;;;;;;;;;1.33;1.33;;;;;-146.44;100.00;58906.56;5013247;28;45576;-57
2022/11/23 10:20:36;;;;;;;;;2.00;2.00;;;;;-146.44;100.00;58906.56;5004874;28;45777;-59
2022/11/23 10:23:06;;;;;;;;;3.00;3.00;;;;;-146.44;100.00;58906.56;5014796;28;47580;-57
2022/11/23 10:25:43;;;;;;;;;3.00;3.00;;;;;-146.44;100.00;58906.56;5016354;28;45478;-59
2022/11/23 10:28:13;;;;;;;;;3.00;3.00;;;;;-146.44;100.00;58906.56;5016185;28;45454;-56
2022/11/23 10:30:39;;;;;;;;;2.33;2.33;;;;;-146.44;100.00;58906.56;5016391;28;45583;-56
2022/11/23 10:33:16;;;;;;;;;4.00;3.00;;;;;-146.44;100.00;58906.56;5016115;28;46185;-55
2022/11/23 10:35:41;;;;;;;;;3.00;3.00;;;;;-146.44;100.00;58906.56;5016529;28;45696;-58
2022/11/23 10:38:18;;;;;;;;;3.00;1.67;;;;;-146.44;100.00;58906.56;5016339;28;45536;-58
2022/11/23 10:41:07;;;;;;;;;1.00;1.00;;;;;-146.44;100.00;58906.56;5016831;28;45592;-57
2022/11/23 10:44:17;;;;;;;;;3.67;3.67;;;;;-146.44;100.00;58906.56;5015701;28;45550;-56
2022/11/23 10:46:43;;;;;;;;;3.00;3.00;;;;;-146.44;100.00;58906.56;5013273;28;45490;-58
2022/11/23 10:49:19;;;;;;;;;1.33;1.33;;;;;-146.44;100.00;58906.56;5013788;28;45559;-57
2022/11/23 10:51:54;;;;;;;;;2.00;2.00;;;;;-146.44;100.00;58906.56;5015036;28;45523;-61
2022/11/23 10:54:24;;;;;;;;;3.00;2.33;;;;;-146.44;100.00;58906.56;5015903;28;45552;-56
2022/11/23 10:56:51;;;;;;;;;3.00;3.00;;;;;-146.44;100.00;58906.56;5015840;28;45425;-58
2022/11/23 10:59:28;;;;;;;;;2.00;2.00;;;;;-146.44;100.00;58906.56;5016092;28;45519;-58
2022/11/23 11:02:21;;;;;;;;;3.33;3.33;;;;;-146.44;100.00;58906.56;5015724;28;45526;-58
2022/11/23 11:04:49;;;;;;;;;3.67;3.67;;;;;-146.44;100.00;58906.56;5015437;28;45653;-59
2022/11/23 11:07:25;;;;;;;;;3.33;3.33;;;;;-146.44;100.00;58906.56;5015517;28;45448;-58
2022/11/23 11:09:53;;;;;;;;;3.00;3.00;;;;;-146.44;100.00;58906.56;5015758;28;45549;-57
2022/11/23 11:12:18;;;;;;;;;5.00;5.00;;;;;-146.44;100.00;58906.56;5015806;28;45516;-58